createdAt,value
2023-02-24T00:47:05.105Z,48.21
2023-02-24T00:49:36.042Z,48.26
2023-02-24T00:52:08.801Z,48.18
2023-02-24T00:54:37.248Z,48.20
2023-02-24T00:57:08.369Z,48.24
2023-02-24T00:59:36.882Z,48.20
2023-02-24T01:45:59.937Z,47.37
2023-02-24T01:48:28.265Z,47.42
2023-02-24T01:50:56.584Z,47.35
2023-02-24T01:53:24.790Z,47.26
2023-02-24T01:55:53.237Z,47.16
2023-02-24T01:58:24.071Z,47.02
2023-02-24T02:47:43.407Z,46.40
2023-02-24T02:50:11.961Z,46.43
2023-02-24T02:52:42.562Z,46.26
2023-02-24T02:55:11.487Z,46.11
2023-02-24T02:57:40.298Z,46.14
2023-02-24T03:47:05.864Z,45.28
2023-02-24T03:49:37.683Z,45.36
2023-02-24T03:52:10.189Z,45.17
2023-02-24T03:54:47.027Z,45.22
2023-02-24T03:57:19.186Z,45.09
2023-02-24T03:59:54.390Z,45.14
2023-02-24T04:55:10.238Z,45.00
2023-02-24T04:57:38.887Z,45.12
2023-02-24T05:46:59.350Z,44.87
2023-02-24T05:49:29.672Z,44.83
2023-02-24T05:51:58.121Z,44.68
2023-02-24T05:54:29.679Z,44.96
2023-02-24T05:56:58.470Z,45.09
2023-02-24T05:59:32.781Z,45.18
2023-02-24T06:02:07.627Z,45.11
2023-02-24T06:04:46.755Z,45.13
2023-02-24T06:07:19.370Z,45.03
2023-02-24T06:09:50.454Z,45.08
2023-02-24T06:12:18.670Z,45.17
2023-02-24T06:14:46.841Z,45.23
2023-02-24T06:17:17.164Z,45.11
2023-02-24T06:19:45.405Z,45.21
2023-02-24T06:22:13.966Z,45.03
2023-02-24T06:24:44.467Z,45.40
2023-02-24T06:27:17.900Z,45.25
2023-02-24T06:29:46.370Z,45.41
2023-02-24T06:32:14.701Z,45.00
2023-02-24T06:34:44.329Z,44.90
2023-02-24T06:37:13.140Z,44.85
2023-02-24T06:39:41.606Z,44.86
2023-02-24T06:42:10.616Z,45.15
2023-02-24T06:44:39.313Z,45.32
2023-02-24T06:47:08.340Z,45.33
2023-02-24T06:49:36.896Z,45.22
2023-02-24T06:52:07.156Z,45.36
2023-02-24T06:54:36.311Z,45.20
2023-02-24T06:57:04.772Z,45.40
2023-02-24T06:59:32.944Z,44.89
2023-02-24T07:02:02.104Z,44.78
2023-02-24T07:04:30.589Z,44.49
2023-02-24T07:07:03.658Z,44.58
2023-02-24T07:09:33.433Z,44.48
2023-02-24T07:12:03.076Z,44.40
2023-02-24T07:14:31.927Z,44.47
2023-02-24T07:17:00.161Z,44.46
2023-02-24T07:19:29.324Z,44.86
2023-02-24T07:22:00.393Z,45.32
2023-02-24T07:24:33.420Z,45.33
2023-02-24T07:27:04.068Z,45.54
2023-02-24T07:29:32.481Z,45.54
2023-02-24T07:32:01.790Z,45.69
2023-02-24T07:34:30.097Z,45.98
2023-02-24T07:36:58.284Z,46.03
2023-02-24T07:39:26.485Z,45.54
2023-02-24T07:41:55.773Z,46.00
2023-02-24T07:44:25.398Z,45.70
2023-02-24T07:46:53.605Z,45.35
2023-02-24T07:49:23.480Z,45.36
2023-02-24T07:51:53.067Z,45.24
2023-02-24T07:54:21.567Z,45.42
2023-02-24T07:56:57.041Z,45.22
2023-02-24T07:59:27.465Z,45.22
2023-02-24T08:01:56.304Z,45.48
2023-02-24T08:04:25.528Z,45.46
2023-02-24T08:06:57.218Z,45.65
2023-02-24T08:09:39.835Z,45.82
2023-02-24T08:12:08.273Z,45.73
2023-02-24T08:14:44.727Z,45.79
2023-02-24T08:17:16.693Z,45.59
2023-02-24T08:19:47.025Z,45.44
2023-02-24T08:22:21.246Z,45.78
2023-02-24T08:24:51.101Z,45.53
2023-02-24T08:27:20.321Z,45.59
2023-02-24T08:30:00.081Z,45.61
2023-02-24T08:32:33.850Z,45.71
2023-02-24T08:35:05.027Z,45.69
2023-02-24T08:37:39.833Z,45.72
2023-02-24T08:40:29.644Z,45.78
2023-02-24T08:42:59.792Z,45.76
2023-02-24T08:45:29.515Z,45.83
2023-02-24T08:48:00.784Z,45.72
2023-02-24T08:50:31.324Z,45.73
2023-02-24T08:53:01.202Z,45.81
2023-02-24T08:55:33.129Z,45.81
2023-02-24T08:58:01.797Z,45.75
2023-02-24T09:00:49.308Z,45.91
2023-02-24T09:03:28.136Z,45.55
2023-02-24T09:06:00.015Z,45.42
2023-02-24T09:08:32.771Z,45.25
2023-02-24T09:11:01.925Z,45.36
2023-02-24T09:13:33.212Z,45.46
2023-02-24T09:16:04.031Z,45.19
2023-02-24T09:18:38.488Z,44.95
2023-02-24T09:21:28.114Z,44.54
2023-02-24T09:23:56.172Z,44.76
2023-02-24T09:26:24.371Z,44.63
2023-02-24T09:28:56.983Z,44.45
2023-02-24T09:31:40.966Z,44.46
2023-02-24T09:34:11.058Z,44.85
2023-02-24T09:36:45.181Z,44.37
2023-02-24T09:39:15.981Z,44.61
2023-02-24T09:41:57.746Z,44.12
2023-02-24T10:19:41.384Z,45.31
2023-02-24T10:30:26.707Z,44.85
2023-02-24T10:33:26.120Z,44.63
2023-02-24T10:36:43.741Z,44.19
2023-02-24T10:39:17.382Z,44.58
2023-02-24T10:41:47.367Z,44.81
2023-02-24T10:44:21.001Z,44.66
2023-02-24T10:46:50.483Z,43.82
2023-02-24T10:53:55.496Z,44.86
2023-02-24T10:57:34.856Z,44.78
2023-02-24T11:04:11.336Z,44.93
2023-02-24T11:07:29.340Z,45.01
2023-02-24T11:10:11.734Z,44.74
2023-02-24T11:16:31.000Z,43.32
2023-02-24T11:19:12.509Z,43.02
2023-02-24T11:25:30.422Z,43.05
2023-02-24T11:28:10.677Z,43.71
2023-02-24T11:31:02.705Z,44.17
2023-02-24T11:33:35.167Z,44.40
2023-02-24T11:36:05.870Z,44.69
2023-02-24T11:38:41.173Z,45.00
2023-02-24T11:45:11.595Z,45.14
2023-02-24T11:47:41.719Z,45.07
2023-02-24T11:50:22.166Z,45.18
2023-02-24T11:53:07.132Z,45.25
2023-02-24T11:55:54.762Z,45.29
2023-02-24T11:58:26.176Z,44.76
2023-02-24T12:01:01.161Z,41.34
2023-02-24T12:04:38.475Z,41.19
2023-02-24T12:16:14.439Z,42.12
2023-02-24T12:19:04.798Z,42.87
2023-02-24T12:21:42.056Z,43.28
2023-02-24T12:24:49.817Z,43.69
2023-02-24T12:27:33.620Z,43.75
2023-02-24T12:30:23.017Z,44.00
2023-02-24T12:32:57.772Z,43.86
2023-02-24T12:35:32.320Z,44.07
2023-02-24T12:38:05.436Z,44.08
2023-02-24T12:41:08.523Z,43.81
2023-02-24T12:43:37.769Z,43.89
2023-02-24T12:46:43.723Z,43.98
2023-02-24T12:49:16.373Z,43.96
2023-02-24T12:51:48.089Z,44.10
2023-02-24T12:58:11.547Z,43.98
2023-02-24T13:09:39.300Z,44.05
2023-02-24T13:12:36.678Z,44.07
2023-02-24T13:15:06.768Z,44.29
2023-02-24T13:17:35.479Z,44.21
2023-02-24T13:20:26.399Z,44.17
2023-02-24T13:22:55.087Z,44.24
2023-02-24T13:25:30.572Z,44.30
2023-02-24T13:28:25.163Z,44.11
2023-02-24T13:30:59.957Z,43.95
2023-02-24T13:33:49.107Z,44.13
2023-02-24T13:36:21.726Z,44.08
2023-02-24T13:38:51.751Z,44.42
2023-02-24T13:44:55.848Z,43.40
2023-02-24T13:51:39.431Z,43.82
2023-02-24T13:54:13.594Z,44.04
2023-02-24T13:56:45.449Z,44.14
2023-02-24T13:59:53.466Z,44.19
2023-02-24T14:10:19.233Z,44.32
2023-02-24T14:15:44.543Z,44.53
2023-02-24T14:22:20.128Z,44.29
2023-02-24T14:28:57.996Z,44.67
2023-02-24T14:31:55.573Z,44.50
2023-02-24T14:34:31.602Z,44.69
2023-02-24T14:38:02.415Z,44.44
2023-02-24T14:40:33.689Z,44.50
2023-02-24T14:43:03.849Z,44.58
2023-02-24T14:45:33.929Z,44.70
2023-02-24T14:48:22.077Z,44.55
2023-02-24T14:50:52.469Z,44.65
2023-02-24T14:57:41.239Z,44.71
2023-02-24T15:00:40.234Z,44.62
2023-02-24T15:03:19.279Z,44.64
2023-02-24T15:05:51.934Z,44.60
2023-02-24T15:09:04.172Z,44.67
2023-02-24T15:11:38.736Z,44.62
2023-02-24T15:25:45.381Z,44.67
2023-02-24T15:28:45.999Z,44.42
2023-02-24T15:31:19.032Z,44.43
2023-02-24T15:37:26.959Z,44.45
2023-02-24T15:40:04.023Z,44.58
2023-02-24T15:46:04.870Z,44.65
2023-02-24T15:48:50.425Z,44.60
2023-02-24T18:18:43.282Z,44.17
2023-02-24T18:21:12.421Z,44.10
2023-02-24T18:24:45.404Z,44.08
2023-02-24T18:27:13.671Z,44.12
2023-02-24T18:29:49.049Z,44.41
2023-02-24T18:32:17.631Z,44.10
2023-02-24T18:34:47.516Z,44.04
2023-02-24T18:37:15.568Z,44.19
2023-02-24T18:40:03.535Z,44.17
2023-02-24T18:42:33.715Z,44.33
2023-02-24T18:45:03.270Z,44.20
2023-02-24T18:47:54.061Z,43.92
2023-02-24T18:50:27.289Z,44.02
2023-02-24T18:52:57.177Z,44.16
2023-02-24T18:55:25.792Z,44.17
2023-02-24T18:57:53.998Z,44.01
2023-02-24T19:00:29.193Z,44.26
2023-02-24T19:03:06.248Z,44.25
2023-02-24T19:05:38.750Z,44.17
2023-02-24T19:08:12.817Z,44.15
2023-02-24T19:10:57.817Z,44.30
2023-02-24T19:13:26.675Z,44.04
2023-02-24T19:15:55.048Z,44.13
2023-02-24T19:18:24.978Z,44.21
2023-02-24T19:20:54.247Z,44.32
2023-02-24T19:23:22.391Z,44.19
2023-02-24T19:26:23.486Z,44.30
2023-02-24T19:56:47.050Z,44.13
2023-02-24T19:59:16.461Z,43.97
2023-02-24T20:02:39.312Z,43.99
2023-02-24T20:05:29.042Z,44.02
2023-02-24T20:08:09.657Z,43.95
2023-02-24T20:14:40.760Z,44.22
2023-02-24T20:17:11.204Z,44.02
2023-02-24T20:27:09.831Z,44.17
2023-02-24T20:30:05.187Z,44.21
2023-02-24T20:33:09.820Z,44.06
2023-02-24T20:35:44.617Z,44.16
2023-02-24T20:38:14.538Z,44.18
2023-02-24T20:45:10.757Z,44.08
2023-02-24T20:48:06.625Z,44.14
2023-02-24T20:59:31.271Z,44.09
2023-02-24T21:02:22.126Z,44.01
2023-02-24T21:04:55.965Z,43.90
2023-02-24T21:08:08.514Z,43.95
2023-02-24T21:11:09.414Z,44.00
2023-02-24T21:22:15.358Z,43.90
2023-02-24T21:25:11.989Z,44.03
2023-02-24T21:27:43.664Z,44.09
2023-02-24T21:30:14.728Z,43.94
2023-02-24T21:32:47.077Z,43.94
2023-02-24T21:35:18.497Z,44.05
2023-02-24T21:37:52.864Z,44.21
2023-02-24T21:40:26.066Z,44.19
2023-02-24T21:43:06.138Z,44.09
2023-02-24T21:45:43.234Z,44.09
2023-02-24T21:48:15.373Z,44.21
2023-02-24T22:01:06.982Z,44.17
2023-02-24T22:13:22.633Z,43.99
2023-02-24T22:24:53.988Z,43.59
2023-02-24T22:27:37.182Z,43.68
2023-02-24T22:30:08.041Z,43.49
2023-02-24T22:32:38.981Z,43.83
2023-02-24T22:35:15.999Z,43.24
2023-02-24T22:37:54.130Z,43.17
2023-02-24T22:40:24.755Z,43.08
2023-02-24T22:43:04.984Z,43.01
2023-02-24T22:45:36.914Z,43.04
2023-02-24T22:48:08.697Z,42.89
2023-02-24T22:50:52.183Z,42.91
2023-02-24T22:53:26.499Z,42.65
2023-02-24T22:56:00.822Z,42.59
2023-02-24T22:58:29.416Z,42.78
2023-02-24T23:01:01.076Z,42.80
2023-02-24T23:03:33.798Z,42.76
2023-02-24T23:06:16.163Z,43.10
2023-02-24T23:08:46.393Z,42.70
2023-02-24T23:11:17.417Z,42.74
2023-02-24T23:13:54.029Z,42.77
2023-02-24T23:16:23.963Z,42.91
2023-02-24T23:19:01.507Z,42.69
2023-02-24T23:21:33.752Z,42.83
2023-02-24T23:24:05.063Z,42.82
2023-02-24T23:26:36.740Z,42.70
2023-02-24T23:29:06.837Z,42.60
2023-02-24T23:31:36.468Z,42.65
2023-02-24T23:34:08.980Z,42.78
2023-02-24T23:36:44.015Z,42.78
2023-02-24T23:39:15.500Z,42.35
2023-02-24T23:41:46.904Z,42.37
2023-02-24T23:44:15.332Z,42.63
2023-02-24T23:46:44.549Z,42.66
2023-02-24T23:49:13.590Z,42.48
2023-02-24T23:51:48.969Z,42.43
2023-02-24T23:54:23.387Z,42.39
2023-02-24T23:57:00.169Z,42.30
2023-02-24T23:59:43.449Z,42.40
